createdAt,value
2023-01-17T04:30:17.690Z,3.96
2023-01-17T04:32:44.774Z,4.12
2023-01-17T04:33:54.152Z,4.08
2023-01-17T04:35:06.422Z,4.19
2023-01-17T04:36:15.717Z,4.29
2023-01-17T04:37:24.859Z,4.43
2023-01-17T04:38:35.844Z,4.53
2023-01-17T04:39:45.300Z,4.61
2023-01-17T04:40:54.176Z,4.73
2023-01-17T04:42:03.934Z,4.81
2023-01-17T04:43:12.482Z,4.94
2023-01-17T04:44:20.989Z,5.02
2023-01-17T04:45:29.530Z,5.07
2023-01-17T04:46:38.979Z,5.09
2023-01-17T04:47:47.973Z,5.11
2023-01-17T04:48:57.788Z,5.13
2023-01-17T04:50:07.774Z,5.19
2023-01-17T04:51:17.157Z,5.18
2023-01-17T04:52:25.805Z,5.18
2023-01-17T04:53:34.497Z,5.19
2023-01-17T04:54:45.462Z,5.18
2023-01-17T04:55:54.088Z,5.18
2023-01-17T04:57:03.409Z,5.23
2023-01-17T04:58:12.498Z,5.24
2023-01-17T04:59:22.896Z,5.22
2023-01-17T05:00:31.743Z,5.24
2023-01-17T05:01:41.085Z,5.27
2023-01-17T05:02:52.508Z,5.24
2023-01-17T05:05:17.468Z,5.43
2023-01-17T05:06:26.953Z,5.31
2023-01-17T05:07:35.988Z,5.32
2023-01-17T05:10:11.790Z,5.35
2023-01-17T05:11:21.261Z,5.27
2023-01-17T05:12:31.957Z,5.28
2023-01-17T05:13:41.050Z,5.24
2023-01-17T05:14:50.810Z,5.28
2023-01-17T05:15:59.789Z,5.31
2023-01-17T05:17:10.654Z,5.33
2023-01-17T05:18:19.599Z,5.30
2023-01-17T05:20:45.324Z,5.43
2023-01-17T05:21:54.725Z,5.28
2023-01-17T05:23:03.836Z,5.25
2023-01-17T05:24:12.353Z,5.21
2023-01-17T05:25:26.932Z,5.20
2023-01-17T05:26:35.548Z,5.18
2023-01-17T05:29:00.333Z,5.34
2023-01-17T05:30:11.889Z,5.30
2023-01-17T05:31:20.832Z,5.32
2023-01-17T05:32:29.423Z,5.36
2023-01-17T05:33:38.440Z,5.34
2023-01-17T05:34:50.533Z,5.38
2023-01-17T05:35:59.649Z,5.38
2023-01-17T05:37:09.139Z,5.42
2023-01-17T05:38:18.198Z,5.45
2023-01-17T05:39:27.952Z,5.49
2023-01-17T05:40:36.449Z,5.52
2023-01-17T05:41:52.781Z,5.50
2023-01-17T05:43:03.813Z,5.50
2023-01-17T05:44:14.715Z,5.58
2023-01-17T05:45:25.811Z,5.59
2023-01-17T05:46:34.924Z,5.56
2023-01-17T05:47:45.517Z,5.57
2023-01-17T05:48:54.342Z,5.55
2023-01-17T05:50:04.655Z,5.50
2023-01-17T05:51:14.772Z,5.50
2023-01-17T05:52:23.092Z,5.45
2023-01-17T05:53:31.756Z,5.44
2023-01-17T05:54:40.067Z,5.43
2023-01-17T05:55:50.417Z,5.41
2023-01-17T05:56:59.759Z,5.39
2023-01-17T05:58:09.940Z,5.34
2023-01-17T05:59:28.745Z,5.36
2023-01-17T06:00:29.916Z,5.39
2023-01-17T06:01:38.543Z,5.41
2023-01-17T06:02:47.923Z,5.41
2023-01-17T06:03:56.674Z,5.38
2023-01-17T06:05:06.159Z,5.37
2023-01-17T06:06:15.883Z,5.41
2023-01-17T06:07:24.210Z,5.43
2023-01-17T06:08:32.984Z,5.40
2023-01-17T06:09:41.448Z,5.43
2023-01-17T06:10:50.884Z,5.44
2023-01-17T06:12:00.068Z,5.44
2023-01-17T06:13:15.066Z,5.45
2023-01-17T06:14:24.558Z,5.39
2023-01-17T06:15:36.364Z,5.41
2023-01-17T06:16:46.677Z,5.41
2023-01-17T06:17:54.981Z,5.40
2023-01-17T06:19:04.152Z,5.39
2023-01-17T06:20:12.674Z,5.42
2023-01-17T06:21:20.919Z,5.38
2023-01-17T06:22:30.331Z,5.35
2023-01-17T06:23:38.704Z,5.32
2023-01-17T06:24:47.538Z,5.27
2023-01-17T06:25:56.310Z,5.29
2023-01-17T06:28:22.870Z,5.53
2023-01-17T06:29:31.165Z,5.43
2023-01-17T06:30:40.025Z,5.41
2023-01-17T06:31:48.568Z,5.41
2023-01-17T06:32:57.132Z,5.41
2023-01-17T06:34:06.520Z,5.43
2023-01-17T06:35:15.119Z,5.45
2023-01-17T06:36:24.971Z,5.44
2023-01-17T06:37:34.416Z,5.51
2023-01-17T06:38:44.096Z,5.52
2023-01-17T06:39:53.370Z,5.50
2023-01-17T06:41:06.139Z,5.53
2023-01-17T06:42:15.613Z,5.54
2023-01-17T06:43:23.947Z,5.54
2023-01-17T06:44:32.984Z,5.55
2023-01-17T06:45:42.447Z,5.58
2023-01-17T06:46:51.021Z,5.61
2023-01-17T06:48:00.869Z,5.59
2023-01-17T06:49:09.195Z,5.60
2023-01-17T06:50:17.803Z,5.65
2023-01-17T06:51:27.437Z,5.60
2023-01-17T06:52:35.845Z,5.66
2023-01-17T06:53:45.429Z,5.62
2023-01-17T06:54:54.266Z,5.63
2023-01-17T06:56:04.217Z,5.62
2023-01-17T06:57:13.309Z,5.60
2023-01-17T06:58:23.182Z,5.58
2023-01-17T06:59:31.876Z,5.54
2023-01-17T07:00:41.261Z,5.54
2023-01-17T07:01:51.212Z,5.55
2023-01-17T07:03:00.827Z,5.62
2023-01-17T07:04:11.220Z,5.59
2023-01-17T07:05:20.146Z,5.56
2023-01-17T07:06:28.504Z,5.58
2023-01-17T07:07:37.121Z,5.54
2023-01-17T07:08:47.937Z,5.58
2023-01-17T07:09:56.253Z,5.56
2023-01-17T07:11:07.798Z,5.58
2023-01-17T07:12:16.481Z,5.58
2023-01-17T07:13:26.022Z,5.52
2023-01-17T07:14:34.967Z,5.51
2023-01-17T07:15:45.522Z,5.54
2023-01-17T07:16:56.058Z,5.54
2023-01-17T07:18:05.141Z,5.53
2023-01-17T07:19:14.391Z,5.55
2023-01-17T07:20:23.205Z,5.54
2023-01-17T07:21:32.135Z,5.53
2023-01-17T07:22:42.340Z,5.46
2023-01-17T07:23:50.665Z,5.50
2023-01-17T07:24:59.441Z,5.46
2023-01-17T07:26:10.326Z,5.46
2023-01-17T07:27:18.660Z,5.47
2023-01-17T07:28:27.714Z,5.54
2023-01-17T07:29:36.047Z,5.59
2023-01-17T07:30:44.939Z,5.63
2023-01-17T07:31:57.745Z,5.62
2023-01-17T07:33:07.609Z,5.59
2023-01-17T07:34:16.045Z,5.60
2023-01-17T07:35:28.602Z,5.59
2023-01-17T07:36:37.130Z,5.63
2023-01-17T07:37:49.430Z,5.62
2023-01-17T07:38:58.650Z,5.67
2023-01-17T07:40:08.448Z,5.71
2023-01-17T07:41:17.367Z,5.68
2023-01-17T07:42:26.099Z,5.65
2023-01-17T07:43:35.105Z,5.61
2023-01-17T07:46:02.163Z,5.75
2023-01-17T07:47:12.131Z,5.62
2023-01-17T07:49:26.276Z,5.71
2023-01-17T07:50:36.831Z,5.58
2023-01-17T14:21:46.142Z,4.14
2023-01-17T14:23:01.766Z,4.10
2023-01-17T14:24:17.162Z,4.14
2023-01-17T14:26:58.679Z,4.52
2023-01-17T14:29:50.533Z,4.86
2023-01-17T14:31:02.583Z,4.84
2023-01-17T14:33:41.645Z,5.17
2023-01-17T14:34:52.721Z,5.20
2023-01-17T14:36:05.040Z,5.25
2023-01-17T14:37:20.408Z,5.31
2023-01-17T14:38:32.063Z,5.36
2023-01-17T14:39:46.618Z,5.45
2023-01-17T14:41:02.294Z,5.50
2023-01-17T14:43:32.826Z,5.78
2023-01-17T14:44:51.093Z,5.70
2023-01-17T14:46:03.896Z,5.77
2023-01-17T14:48:32.160Z,5.93
2023-01-17T14:49:46.636Z,5.86
2023-01-17T14:52:17.443Z,6.01
2023-01-17T14:54:48.835Z,6.15
2023-01-17T14:56:00.849Z,6.08
2023-01-17T14:58:42.746Z,6.24
2023-01-17T14:59:51.764Z,6.18
2023-01-17T15:02:22.352Z,6.39
2023-01-17T15:03:35.387Z,6.25
2023-01-17T15:06:14.133Z,6.41
2023-01-17T15:07:23.902Z,6.29
2023-01-17T15:08:36.087Z,6.34
2023-01-17T15:09:46.619Z,6.38
2023-01-17T15:11:00.633Z,6.36
2023-01-17T15:12:14.768Z,6.37
2023-01-17T15:13:44.264Z,6.44
2023-01-17T15:14:47.411Z,6.46
2023-01-17T15:16:09.362Z,6.48
2023-01-17T15:17:23.622Z,6.47
2023-01-17T15:18:36.277Z,6.50
2023-01-17T15:21:10.018Z,6.59
2023-01-17T15:22:20.049Z,6.50
2023-01-17T15:24:50.602Z,6.62
2023-01-17T15:26:01.434Z,6.48
2023-01-17T15:27:14.439Z,6.48
2023-01-17T15:28:24.500Z,6.46
2023-01-17T15:29:35.862Z,6.49
2023-01-17T15:31:05.043Z,6.50
2023-01-17T15:32:24.520Z,6.55
2023-01-17T15:33:35.129Z,6.58
2023-01-17T15:34:46.354Z,6.57
2023-01-17T15:37:40.865Z,6.71
2023-01-17T15:38:57.648Z,6.67
2023-01-17T15:40:19.027Z,6.70
2023-01-17T15:45:46.690Z,6.87
2023-01-17T15:46:55.737Z,6.74
2023-01-17T15:49:44.241Z,6.85
2023-01-17T15:50:59.990Z,6.77
2023-01-17T15:52:16.264Z,6.77
2023-01-17T15:53:31.957Z,6.78
2023-01-17T15:56:22.307Z,6.97
2023-01-17T15:58:52.675Z,7.01
2023-01-17T16:00:13.955Z,6.89
2023-01-17T16:02:44.099Z,7.02
2023-01-17T16:03:54.979Z,6.91
2023-01-17T16:05:34.615Z,6.93
2023-01-17T16:06:46.283Z,6.94
2023-01-17T16:07:58.312Z,6.95
2023-01-17T16:10:28.639Z,7.09
2023-01-17T16:13:01.037Z,7.07
2023-01-17T22:19:53.514Z,5.37
2023-01-17T22:21:15.824Z,5.36
2023-01-17T22:22:25.557Z,5.44
2023-01-17T22:23:35.593Z,5.53
2023-01-17T22:26:05.671Z,5.94
2023-01-17T22:28:32.616Z,6.27
2023-01-17T22:29:41.128Z,6.29
2023-01-17T22:30:49.788Z,6.42
2023-01-17T22:31:58.676Z,6.54
2023-01-17T22:33:07.700Z,6.66
2023-01-17T22:34:18.758Z,6.78
2023-01-17T22:35:28.304Z,6.87
2023-01-17T22:36:37.216Z,6.94
2023-01-17T22:37:45.850Z,7.03
2023-01-17T22:38:56.107Z,7.09
2023-01-17T22:40:07.119Z,7.14
2023-01-17T22:42:39.245Z,7.43
2023-01-17T22:43:50.920Z,7.37
2023-01-17T22:45:00.914Z,7.42
2023-01-17T22:47:27.046Z,7.67
2023-01-17T22:48:37.604Z,7.60
2023-01-17T22:49:46.124Z,7.64
2023-01-17T22:51:02.172Z,7.67
2023-01-17T22:53:27.337Z,7.88
2023-01-17T22:54:36.853Z,7.82
2023-01-17T22:55:45.802Z,7.85
2023-01-17T22:56:54.981Z,7.92
2023-01-17T22:58:04.081Z,7.91
2023-01-17T22:59:13.272Z,7.96
2023-01-17T23:00:23.038Z,7.96
2023-01-17T23:01:34.284Z,7.99
2023-01-17T23:02:43.341Z,8.01
2023-01-17T23:03:55.785Z,8.02
2023-01-17T23:06:27.592Z,8.20
2023-01-17T23:09:02.330Z,8.21
2023-01-17T23:12:58.617Z,8.27
2023-01-17T23:14:14.820Z,8.17
2023-01-17T23:15:42.523Z,8.15
2023-01-17T23:17:17.228Z,8.19
2023-01-17T23:19:59.026Z,8.29
2023-01-17T23:21:08.361Z,8.17
2023-01-17T23:22:21.041Z,8.17
2023-01-17T23:23:33.541Z,8.17
2023-01-17T23:24:44.787Z,8.19
2023-01-17T23:27:48.106Z,8.28
2023-01-17T23:28:57.721Z,8.18
2023-01-17T23:31:27.113Z,8.28
2023-01-17T23:32:43.109Z,8.17
2023-01-17T23:33:51.680Z,8.15
2023-01-17T23:35:01.771Z,8.16
2023-01-17T23:36:12.205Z,8.15
2023-01-17T23:37:20.948Z,8.12
2023-01-17T23:38:30.060Z,8.12
2023-01-17T23:39:40.312Z,8.11
2023-01-17T23:41:08.039Z,8.13
2023-01-17T23:42:36.863Z,8.11
2023-01-17T23:43:54.956Z,8.08
2023-01-17T23:46:21.876Z,8.21
